Time;durP1;ratioP1;P1;durP2;ratioP2;P2;SDS_P1;SDS_P2;PMS_P1;PMS_P2;Temp;Humidity;BMP_temperature;BMP_pressure;BME280_temperature;BME280_humidity;BME280_pressure;Samples;Min_cycle;Max_cycle;Signal;HPM_P1;HPM_P2
2024/03/08 00:00:20;;;;;;;0.60;0.60;;;4.10;98.50;;;;;;4959981;28;20046;-74
2024/03/08 00:02:47;;;;;;;2.33;1.60;;;4.00;99.90;;;;;;4959002;28;20042;-75
2024/03/08 00:05:14;;;;;;;5.45;1.83;;;4.00;99.90;;;;;;4943653;28;20045;-75
2024/03/08 00:07:41;;;;;;;1.15;0.90;;;3.90;99.90;;;;;;4959774;28;20031;-75
2024/03/08 00:10:11;;;;;;;1.35;1.13;;;3.80;99.90;;;;;;4963859;28;20050;-74
2024/03/08 00:12:46;;;;;;;1.83;1.50;;;3.70;99.90;;;;;;4965884;28;20034;-75
2024/03/08 00:15:17;;;;;;;1.42;1.33;;;3.70;99.90;;;;;;4963808;28;20469;-75
2024/03/08 00:17:44;;;;;;;2.75;1.98;;;3.60;99.90;;;;;;4962097;28;20046;-76
2024/03/08 00:20:10;;;;;;;1.17;1.17;;;3.50;99.90;;;;;;4959913;28;20039;-73
2024/03/08 00:22:38;;;;;;;0.30;0.30;;;3.50;99.90;;;;;;4949360;28;20035;-76
2024/03/08 00:25:05;;;;;;;3.40;2.78;;;3.50;99.90;;;;;;4965569;28;20034;-75
2024/03/08 00:27:31;;;;;;;1.92;1.83;;;3.50;99.90;;;;;;4966168;28;20046;-76
2024/03/08 00:29:58;;;;;;;3.28;2.40;;;3.60;99.90;;;;;;4964132;28;20039;-77
2024/03/08 00:32:24;;;;;;;1.00;1.00;;;3.50;99.90;;;;;;4961327;28;20050;-74
2024/03/08 00:34:57;;;;;;;2.25;1.90;;;3.60;99.90;;;;;;4957443;28;20039;-76
2024/03/08 00:37:23;;;;;;;3.28;2.97;;;3.70;99.90;;;;;;4961049;28;20031;-76
2024/03/08 00:39:50;;;;;;;6.60;1.92;;;3.60;99.90;;;;;;4964597;28;20039;-76
2024/03/08 00:42:20;;;;;;;1.00;0.95;;;3.60;99.90;;;;;;4941734;28;20501;-76
2024/03/08 00:44:48;;;;;;;5.20;3.00;;;3.60;99.90;;;;;;4963728;28;20035;-76
2024/03/08 00:47:14;;;;;;;0.90;0.90;;;3.60;99.90;;;;;;4944570;28;20035;-76
2024/03/08 00:49:41;;;;;;;9.35;2.10;;;3.70;99.90;;;;;;4960009;28;20031;-76
2024/03/08 00:52:08;;;;;;;1.58;1.48;;;3.80;99.90;;;;;;4959746;28;20035;-76
2024/03/08 00:54:38;;;;;;;15.60;3.70;;;4.00;99.90;;;;;;4959400;28;20483;-76
2024/03/08 00:57:06;;;;;;;3.28;3.08;;;4.00;93.30;;;;;;4966265;28;20035;-76
2024/03/08 00:59:33;;;;;;;2.63;2.42;;;4.10;66.10;;;;;;4948218;28;20039;-76
2024/03/08 01:02:02;;;;;;;1.98;1.88;;;4.10;51.80;;;;;;4962338;28;20057;-76
2024/03/08 01:04:29;;;;;;;2.08;1.50;;;4.00;66.10;;;;;;4961381;28;20031;-76
2024/03/08 01:06:56;;;;;;;3.28;2.58;;;4.00;61.50;;;;;;4959698;28;20050;-76
2024/03/08 01:09:23;;;;;;;1.67;1.58;;;4.10;51.20;;;;;;4964117;28;20039;-75
2024/03/08 01:11:50;;;;;;;2.80;2.60;;;4.00;52.50;;;;;;4946794;28;20562;-76
2024/03/08 01:14:16;;;;;;;1.67;1.58;;;3.90;58.60;;;;;;4961224;28;20042;-76
2024/03/08 01:16:43;;;;;;;1.67;1.58;;;3.90;74.10;;;;;;4961161;28;20031;-76
2024/03/08 01:19:09;;;;;;;4.80;2.58;;;3.80;83.70;;;;;;4958093;28;20039;-76
2024/03/08 01:21:35;;;;;;;4.55;1.70;;;3.80;98.10;;;;;;4961227;28;20054;-76
2024/03/08 01:24:01;;;;;;;4.65;1.73;;;3.80;95.80;;;;;;4962541;28;20453;-76
2024/03/08 01:26:27;;;;;;;4.80;3.05;;;3.70;99.90;;;;;;4948324;28;20039;-76
2024/03/08 01:28:53;;;;;;;1.55;1.45;;;3.60;99.90;;;;;;4944104;28;20038;-76
2024/03/08 01:31:19;;;;;;;2.95;2.63;;;3.50;99.90;;;;;;4964912;28;20043;-76
2024/03/08 01:33:45;;;;;;;11.75;2.70;;;3.40;99.90;;;;;;4957176;28;20032;-76
2024/03/08 01:36:15;;;;;;;2.55;2.35;;;3.30;99.90;;;;;;4952881;28;20042;-76
2024/03/08 01:38:42;;;;;;;1.77;1.67;;;3.60;99.90;;;;;;4964667;28;20043;-76
2024/03/08 01:41:09;;;;;;;1.98;1.60;;;3.50;99.90;;;;;;4951833;28;20630;-76
2024/03/08 01:43:35;;;;;;;3.08;2.88;;;3.30;99.90;;;;;;4965116;28;20082;-76
2024/03/08 01:46:01;;;;;;;2.85;1.08;;;3.00;99.90;;;;;;4964844;28;20030;-76
2024/03/08 01:48:29;;;;;;;4.80;1.65;;;2.80;99.90;;;;;;4962822;28;20039;-76
2024/03/08 01:50:57;;;;;;;3.58;1.60;;;2.70;99.90;;;;;;4967457;28;20487;-76
2024/03/08 01:53:25;;;;;;;1.55;1.45;;;2.60;99.90;;;;;;4947777;28;20043;-76
2024/03/08 01:55:55;;;;;;;1.60;1.48;;;2.40;99.90;;;;;;4955638;28;20527;-76
2024/03/08 01:58:22;;;;;;;1.98;1.77;;;2.30;99.90;;;;;;4967898;28;20039;-76
2024/03/08 02:00:49;;;;;;;1.15;1.15;;;2.20;1.00;;;;;;4968961;28;20045;-76
2024/03/08 02:03:16;;;;;;;1.10;1.10;;;2.00;1.00;;;;;;4962862;28;20050;-76
2024/03/08 02:05:43;;;;;;;2.53;2.33;;;1.90;1.00;;;;;;4960855;28;20046;-76
2024/03/08 02:08:14;;;;;;;4.15;2.55;;;1.90;1.00;;;;;;4965647;28;20026;-76
2024/03/08 02:10:44;;;;;;;1.00;1.00;;;2.10;1.00;;;;;;4967916;28;20428;-76
2024/03/08 02:13:11;;;;;;;0.82;0.82;;;2.30;1.00;;;;;;4969084;28;20145;-76
2024/03/08 02:15:50;;;;;;;3.45;2.63;;;2.30;1.00;;;;;;4965669;28;20058;-75
2024/03/08 02:18:17;;;;;;;3.65;2.83;;;2.40;1.00;;;;;;4967716;28;20038;-75
2024/03/08 02:20:43;;;;;;;1.88;1.77;;;2.60;1.00;;;;;;4963892;28;20039;-76
2024/03/08 02:23:09;;;;;;;0.75;0.75;;;2.60;99.90;;;;;;4961539;28;20053;-76
2024/03/08 02:25:36;;;;;;;1.58;1.45;;;2.80;99.90;;;;;;4963074;28;20034;-75
2024/03/08 02:28:02;;;;;;;5.43;2.45;;;2.80;99.90;;;;;;4944318;28;20039;-76
2024/03/08 02:30:29;;;;;;;2.45;2.30;;;2.90;99.90;;;;;;4940925;28;20046;-75
2024/03/08 02:32:56;;;;;;;0.70;0.70;;;2.90;99.90;;;;;;4965798;28;20045;-75
2024/03/08 02:35:22;;;;;;;2.83;2.05;;;2.90;99.90;;;;;;4946258;28;20043;-75
2024/03/08 02:37:48;;;;;;;1.35;1.25;;;3.00;99.90;;;;;;4951405;28;20035;-76
2024/03/08 02:40:14;;;;;;;1.48;1.38;;;3.20;99.90;;;;;;4956764;28;20051;-75
2024/03/08 02:42:40;;;;;;;2.20;2.05;;;3.20;99.90;;;;;;4955658;28;20047;-75
2024/03/08 02:45:09;;;;;;;4.72;1.40;;;3.20;99.90;;;;;;4964239;28;20473;-75
2024/03/08 02:47:36;;;;;;;1.35;1.25;;;3.10;99.90;;;;;;4964322;28;20035;-75
2024/03/08 02:50:03;;;;;;;1.58;1.48;;;3.10;99.90;;;;;;4961105;28;20047;-76
2024/03/08 02:52:30;;;;;;;0.50;0.50;;;2.90;99.90;;;;;;4965019;28;20760;-75
2024/03/08 02:54:56;;;;;;;5.20;3.90;;;2.80;99.90;;;;;;4966026;28;20046;-75
2024/03/08 02:57:23;;;;;;;2.08;1.92;;;2.80;99.90;;;;;;4966481;28;20050;-75
2024/03/08 02:59:49;;;;;;;10.43;2.05;;;2.80;99.90;;;;;;4967082;28;20041;-75
2024/03/08 03:02:16;;;;;;;1.45;1.00;;;2.80;99.90;;;;;;4964750;28;20046;-75
2024/03/08 03:04:43;;;;;;;2.10;1.85;;;2.80;99.90;;;;;;4960543;28;20043;-75
2024/03/08 03:07:09;;;;;;;2.88;1.83;;;2.90;99.90;;;;;;4954403;28;20031;-75
2024/03/08 03:09:35;;;;;;;1.95;1.77;;;3.10;99.90;;;;;;4966491;28;20051;-76
2024/03/08 03:12:02;;;;;;;1.25;1.20;;;3.00;99.90;;;;;;4966683;28;20031;-76
2024/03/08 03:14:28;;;;;;;2.92;2.58;;;3.00;99.90;;;;;;4965892;28;20050;-75
2024/03/08 03:16:54;;;;;;;1.52;1.42;;;2.90;99.90;;;;;;4964046;28;20035;-75
2024/03/08 03:19:21;;;;;;;3.55;1.67;;;2.90;99.90;;;;;;4960266;28;20381;-75
2024/03/08 03:21:47;;;;;;;2.33;2.13;;;2.90;99.90;;;;;;4962387;28;20038;-76
2024/03/08 03:24:16;;;;;;;2.58;1.42;;;2.90;99.90;;;;;;4961683;28;20023;-76
2024/03/08 03:26:43;;;;;;;2.35;2.15;;;2.80;99.90;;;;;;4944648;28;20054;-75
2024/03/08 03:29:10;;;;;;;3.92;1.27;;;2.80;99.90;;;;;;4948346;28;20049;-75
2024/03/08 03:31:37;;;;;;;1.23;1.13;;;2.70;99.90;;;;;;4964692;28;20039;-75
2024/03/08 03:34:03;;;;;;;0.47;0.47;;;2.60;99.90;;;;;;4961137;28;20039;-76
2024/03/08 03:36:30;;;;;;;9.77;3.25;;;2.40;99.90;;;;;;4964812;28;20035;-76
2024/03/08 03:39:06;;;;;;;5.72;4.03;;;2.30;99.90;;;;;;4960148;28;20038;-76
2024/03/08 03:41:34;;;;;;;0.70;0.70;;;2.10;99.90;;;;;;4963535;28;20039;-75
2024/03/08 03:44:00;;;;;;;0.30;0.30;;;1.90;99.90;;;;;;4965074;28;20055;-76
2024/03/08 03:46:27;;;;;;;5.28;1.67;;;1.60;99.90;;;;;;4968822;28;20409;-76
2024/03/08 03:48:55;;;;;;;2.17;2.05;;;1.40;99.90;;;;;;4963823;28;20050;-76
2024/03/08 03:51:21;;;;;;;3.13;2.90;;;1.30;1.00;;;;;;4958784;28;20045;-75
2024/03/08 03:53:48;;;;;;;1.38;0.75;;;1.10;1.00;;;;;;4964278;28;20042;-76
2024/03/08 03:56:14;;;;;;;1.80;1.23;;;1.00;1.00;;;;;;4965245;28;20038;-75
2024/03/08 03:58:41;;;;;;;4.63;1.60;;;0.80;1.00;;;;;;4959182;28;20030;-76
2024/03/08 04:01:07;;;;;;;0.43;0.43;;;0.80;43.70;;;;;;4961731;28;20038;-76
2024/03/08 04:03:33;;;;;;;2.10;1.58;;;0.70;88.20;;;;;;4961598;28;20035;-75
2024/03/08 04:06:00;;;;;;;0.73;0.60;;;0.70;99.90;;;;;;4959667;28;20412;-76
2024/03/08 04:08:27;;;;;;;0.73;0.73;;;0.50;99.90;;;;;;4962521;28;20039;-76
2024/03/08 04:10:53;;;;;;;3.33;2.38;;;0.40;99.90;;;;;;4965355;28;20035;-76
2024/03/08 04:13:20;;;;;;;2.58;2.38;;;0.40;99.90;;;;;;4964987;28;20061;-76
2024/03/08 04:15:48;;;;;;;4.68;2.35;;;0.30;99.90;;;;;;4965591;28;20031;-75
2024/03/08 04:18:14;;;;;;;0.40;0.40;;;0.30;99.90;;;;;;4958184;28;20042;-76
2024/03/08 04:20:40;;;;;;;2.88;2.10;;;0.10;99.90;;;;;;4962144;28;20047;-76
2024/03/08 04:23:07;;;;;;;0.85;0.85;;;0.10;99.90;;;;;;4961739;28;20026;-76
2024/03/08 04:25:33;;;;;;;4.50;2.42;;;0.00;99.90;;;;;;4965814;28;20035;-76
2024/03/08 04:27:59;;;;;;;1.35;1.25;;;0.00;99.90;;;;;;4967136;28;20058;-76
2024/03/08 04:30:28;;;;;;;1.75;1.38;;;0.00;99.90;;;;;;4952552;28;20039;-76
2024/03/08 04:32:54;;;;;;;2.70;1.23;;;-0.10;99.90;;;;;;4962118;28;20038;-76
2024/03/08 04:35:20;;;;;;;9.50;2.08;;;-0.20;99.90;;;;;;4959954;28;20028;-75
2024/03/08 04:37:46;;;;;;;1.05;0.77;;;-0.20;99.90;;;;;;4947925;28;20100;-76
2024/03/08 04:40:12;;;;;;;0.82;0.73;;;-0.10;99.90;;;;;;4962835;28;20043;-76
2024/03/08 04:42:40;;;;;;;0.95;0.93;;;-0.20;99.90;;;;;;4964617;28;20472;-76
2024/03/08 04:45:10;;;;;;;1.60;1.50;;;-0.10;99.90;;;;;;4966538;28;20043;-76
2024/03/08 04:47:37;;;;;;;1.73;1.35;;;-0.20;99.90;;;;;;4964833;28;20050;-76
2024/03/08 04:50:04;;;;;;;2.92;2.50;;;-0.20;99.90;;;;;;4961477;28;20039;-76
2024/03/08 04:52:30;;;;;;;2.67;1.48;;;0.00;99.90;;;;;;4961752;28;20043;-76
2024/03/08 04:54:56;;;;;;;4.63;2.00;;;0.10;99.90;;;;;;4958830;28;20031;-76
2024/03/08 04:57:22;;;;;;;1.70;1.60;;;0.20;99.90;;;;;;4961984;28;20046;-76
2024/03/08 04:59:48;;;;;;;1.55;1.30;;;0.50;99.90;;;;;;4966534;28;20038;-76
2024/03/08 05:02:15;;;;;;;2.13;2.03;;;0.50;99.90;;;;;;4964858;28;20491;-76
2024/03/08 05:04:42;;;;;;;1.65;1.45;;;0.40;99.90;;;;;;4967336;28;20036;-76
2024/03/08 05:07:08;;;;;;;1.00;0.98;;;0.50;99.90;;;;;;4965265;28;20046;-76
2024/03/08 05:09:36;;;;;;;1.83;1.65;;;0.60;99.90;;;;;;4964622;28;20046;-76
2024/03/08 05:12:02;;;;;;;7.90;0.95;;;0.50;99.90;;;;;;4958696;28;20039;-75
2024/03/08 05:14:28;;;;;;;0.43;0.43;;;0.40;99.90;;;;;;4962876;28;20039;-75
2024/03/08 05:16:54;;;;;;;2.17;2.08;;;0.30;99.90;;;;;;4964053;28;20053;-75
2024/03/08 05:19:21;;;;;;;1.27;1.17;;;0.60;99.90;;;;;;4958652;28;20429;-75
2024/03/08 05:21:48;;;;;;;3.97;2.10;;;1.00;99.90;;;;;;4962774;28;20031;-75
2024/03/08 05:24:15;;;;;;;7.97;2.08;;;0.90;94.80;;;;;;4966787;28;20022;-76
2024/03/08 05:26:42;;;;;;;1.83;1.17;;;0.70;77.30;;;;;;4957658;28;20050;-76
2024/03/08 05:29:08;;;;;;;2.63;2.42;;;0.50;98.00;;;;;;4970143;28;20062;-75
2024/03/08 05:31:48;;;;;;;2.40;1.88;;;0.20;99.90;;;;;;4947772;28;20046;-76
2024/03/08 05:34:14;;;;;;;4.57;1.48;;;0.00;99.90;;;;;;4961691;28;20035;-75
2024/03/08 05:36:44;;;;;;;1.27;0.82;;;-0.10;99.90;;;;;;4966636;28;20039;-76
2024/03/08 05:39:11;;;;;;;1.58;1.48;;;0.00;99.90;;;;;;4963601;28;20047;-76
2024/03/08 05:41:39;;;;;;;2.35;1.95;;;-0.20;99.90;;;;;;4977208;28;20042;-75
2024/03/08 05:44:05;;;;;;;0.73;0.73;;;-0.40;99.90;;;;;;4957045;28;20061;-76
2024/03/08 05:46:31;;;;;;;0.80;0.63;;;-0.20;99.90;;;;;;4967428;28;20046;-76
2024/03/08 05:49:04;;;;;;;3.25;2.90;;;-0.30;99.90;;;;;;4964720;28;20035;-76
2024/03/08 05:51:34;;;;;;;0.93;0.88;;;-0.30;99.90;;;;;;4965740;28;20047;-76
2024/03/08 05:54:09;;;;;;;1.67;1.58;;;-0.30;99.90;;;;;;4960167;28;20039;-75
2024/03/08 05:56:37;;;;;;;2.00;1.90;;;-0.40;99.90;;;;;;4958426;28;20932;-75
2024/03/08 05:59:03;;;;;;;1.35;1.27;;;-0.40;99.90;;;;;;4958657;28;20035;-76
2024/03/08 06:01:35;;;;;;;0.57;0.57;;;-0.30;99.90;;;;;;4958844;28;20030;-78
2024/03/08 06:04:03;;;;;;;0.85;0.85;;;-0.40;99.90;;;;;;4967519;28;20039;-76
2024/03/08 06:06:29;;;;;;;5.90;2.30;;;-0.50;99.90;;;;;;4963054;28;20034;-76
2024/03/08 06:08:59;;;;;;;1.75;1.23;;;-0.50;99.90;;;;;;4964538;28;20027;-75
2024/03/08 06:11:30;;;;;;;0.93;0.93;;;-0.60;99.90;;;;;;4967223;28;20054;-76
2024/03/08 06:13:59;;;;;;;0.43;0.43;;;-0.60;99.90;;;;;;4969600;28;20043;-76
2024/03/08 06:16:28;;;;;;;1.80;0.93;;;-0.50;99.90;;;;;;4962654;28;20034;-76
2024/03/08 06:18:58;;;;;;;1.05;0.80;;;-0.50;99.90;;;;;;4962992;28;20035;-76
2024/03/08 06:21:27;;;;;;;1.38;1.27;;;-0.40;99.90;;;;;;4965938;28;20035;-76
2024/03/08 06:23:57;;;;;;;1.50;1.40;;;-0.40;99.90;;;;;;4967900;28;20097;-75
2024/03/08 06:26:25;;;;;;;2.50;2.22;;;-0.30;99.90;;;;;;4969402;28;20037;-75
2024/03/08 06:28:51;;;;;;;0.98;0.98;;;-0.30;99.90;;;;;;4967070;28;20031;-76
2024/03/08 06:31:17;;;;;;;4.32;3.40;;;-0.20;99.90;;;;;;4965300;28;20032;-76
2024/03/08 06:33:43;;;;;;;1.27;1.02;;;-0.10;99.90;;;;;;4966550;28;20045;-76
2024/03/08 06:36:11;;;;;;;0.80;0.77;;;0.00;99.90;;;;;;4966258;28;20397;-76
2024/03/08 06:38:42;;;;;;;1.42;1.33;;;0.10;99.90;;;;;;4958811;28;20477;-75
2024/03/08 06:41:14;;;;;;;1.75;0.82;;;0.30;99.90;;;;;;4953729;28;20039;-76
2024/03/08 06:43:48;;;;;;;2.65;2.25;;;0.30;99.90;;;;;;4966188;28;20051;-76
2024/03/08 06:46:17;;;;;;;3.53;2.35;;;0.60;99.90;;;;;;4965738;28;20042;-77
2024/03/08 06:48:45;;;;;;;0.63;0.63;;;0.90;99.90;;;;;;4961414;28;20035;-76
2024/03/08 06:51:11;;;;;;;1.63;1.50;;;1.00;99.90;;;;;;4969441;28;20402;-76
2024/03/08 06:53:38;;;;;;;11.73;3.50;;;1.10;99.90;;;;;;4965422;28;20416;-76
2024/03/08 06:56:04;;;;;;;8.75;2.60;;;1.20;99.90;;;;;;4947397;28;20042;-76
2024/03/08 06:58:30;;;;;;;1.55;1.45;;;1.30;99.90;;;;;;4964028;28;20388;-76
2024/03/08 07:01:00;;;;;;;2.85;2.65;;;1.50;99.90;;;;;;4964212;28;20478;-76
2024/03/08 07:03:28;;;;;;;7.43;2.55;;;1.80;77.30;;;;;;4965110;28;20042;-76
2024/03/08 07:05:56;;;;;;;2.72;2.53;;;2.10;1.00;;;;;;4964867;28;20454;-76
2024/03/08 07:08:23;;;;;;;7.20;3.65;;;2.60;1.00;;;;;;4964520;28;20031;-76
2024/03/08 07:10:49;;;;;;;1.55;1.45;;;3.00;1.00;;;;;;4965714;28;20047;-76
2024/03/08 07:13:16;;;;;;;2.45;1.73;;;3.20;99.90;;;;;;4967216;28;20495;-76
2024/03/08 07:15:44;;;;;;;1.58;1.48;;;3.80;99.90;;;;;;4965225;28;20043;-76
2024/03/08 07:18:14;;;;;;;2.15;1.95;;;4.30;99.90;;;;;;4963020;28;20035;-77
2024/03/08 07:20:41;;;;;;;5.07;3.63;;;5.00;29.00;;;;;;4963567;28;20039;-76
2024/03/08 07:23:10;;;;;;;1.40;1.30;;;5.40;1.00;;;;;;4952873;28;20038;-76
2024/03/08 07:25:39;;;;;;;3.38;1.80;;;5.50;1.00;;;;;;4961506;28;20030;-76
2024/03/08 07:28:06;;;;;;;1.23;1.15;;;5.90;1.00;;;;;;4964443;28;20038;-77
2024/03/08 07:33:14;;;;;;;1.42;1.33;;;5.90;99.90;;;;;;4951281;28;20043;-76
2024/03/08 07:35:42;;;;;;;0.70;0.70;;;6.00;99.90;;;;;;4936312;28;20043;-78
2024/03/08 07:38:09;;;;;;;2.65;2.45;;;6.10;99.90;;;;;;4967660;28;20030;-77
2024/03/08 07:40:40;;;;;;;2.58;2.10;;;6.30;99.90;;;;;;4966436;28;20043;-76
2024/03/08 07:43:07;;;;;;;;;;;6.90;99.90;;;;;;4966307;28;20050;-76
2024/03/08 07:45:33;;;;;;;2.63;1.35;;;7.40;99.90;;;;;;4966249;28;19929;-75
2024/03/08 07:47:59;;;;;;;1.35;1.20;;;7.10;99.90;;;;;;4967185;28;20388;-76
2024/03/08 07:50:25;;;;;;;2.75;2.47;;;7.00;99.90;;;;;;4960976;28;20027;-76
2024/03/08 07:52:52;;;;;;;2.50;2.25;;;7.20;99.90;;;;;;4965612;28;20038;-76
2024/03/08 07:55:18;;;;;;;1.15;1.02;;;7.20;99.90;;;;;;4968324;28;20400;-76
2024/03/08 07:57:45;;;;;;;1.88;1.77;;;7.10;99.90;;;;;;4967408;28;20456;-76
2024/03/08 08:00:17;;;;;;;1.75;1.65;;;7.20;99.90;;;;;;4967319;28;20034;-75
2024/03/08 08:02:45;;;;;;;3.75;2.38;;;7.40;99.90;;;;;;4962113;28;20039;-75
2024/03/08 08:05:11;;;;;;;2.60;2.40;;;8.00;99.90;;;;;;4960125;28;20050;-76
2024/03/08 08:07:38;;;;;;;2.83;1.58;;;8.30;99.90;;;;;;4965740;28;20042;-76
2024/03/08 08:10:06;;;;;;;2.78;2.03;;;8.30;99.90;;;;;;4954034;28;20034;-74
2024/03/08 08:12:34;;;;;;;1.08;1.05;;;9.00;99.90;;;;;;4968302;28;20034;-75
2024/03/08 08:15:00;;;;;;;2.30;2.03;;;8.90;99.90;;;;;;4964908;28;20035;-74
2024/03/08 08:17:26;;;;;;;2.13;1.45;;;9.40;99.90;;;;;;4953995;28;20575;-76
2024/03/08 08:19:52;;;;;;;1.60;1.50;;;9.20;99.90;;;;;;4964378;28;20384;-75
2024/03/08 08:22:19;;;;;;;1.25;1.15;;;8.80;99.90;;;;;;4962125;28;20038;-75
2024/03/08 08:24:45;;;;;;;3.28;2.03;;;8.50;99.90;;;;;;4967706;28;20366;-75
2024/03/08 08:27:11;;;;;;;2.22;2.10;;;8.40;99.90;;;;;;4963738;28;20059;-74
2024/03/08 08:29:38;;;;;;;2.15;1.60;;;8.20;99.90;;;;;;4965840;28;20036;-75
2024/03/08 08:32:04;;;;;;;2.17;1.92;;;8.10;99.90;;;;;;4962835;28;20031;-75
2024/03/08 08:34:31;;;;;;;9.43;2.95;;;8.00;99.90;;;;;;4953275;28;20062;-76
2024/03/08 08:36:57;;;;;;;2.60;2.35;;;8.00;99.90;;;;;;4948835;28;20236;-75
2024/03/08 08:39:25;;;;;;;1.88;1.70;;;7.90;99.90;;;;;;4964034;28;20039;-75
2024/03/08 08:41:52;;;;;;;5.00;2.83;;;7.90;99.90;;;;;;4967069;28;20028;-75
2024/03/08 08:44:18;;;;;;;2.40;2.20;;;8.10;99.90;;;;;;4965871;28;20051;-74
2024/03/08 08:46:44;;;;;;;4.05;2.33;;;8.00;99.90;;;;;;4962610;28;20071;-74
2024/03/08 08:49:14;;;;;;;2.53;1.55;;;7.80;99.90;;;;;;4958996;28;20035;-75
2024/03/08 08:51:40;;;;;;;2.30;1.95;;;7.90;99.90;;;;;;4960061;28;20039;-75
2024/03/08 08:54:08;;;;;;;2.60;2.40;;;8.00;99.90;;;;;;4965096;28;20047;-75
2024/03/08 08:56:34;;;;;;;3.13;2.83;;;8.20;99.90;;;;;;4964558;28;20042;-76
2024/03/08 08:59:00;;;;;;;3.58;1.75;;;8.30;99.90;;;;;;4965911;28;20039;-76
2024/03/08 09:01:26;;;;;;;1.48;1.30;;;8.50;99.90;;;;;;4947839;28;20384;-75
2024/03/08 09:03:53;;;;;;;1.48;1.38;;;8.80;99.90;;;;;;4959955;28;20046;-74
2024/03/08 09:06:20;;;;;;;0.88;0.85;;;9.10;99.90;;;;;;4963685;28;20027;-74
2024/03/08 09:08:46;;;;;;;3.13;2.28;;;9.60;99.90;;;;;;4948381;28;20039;-73
2024/03/08 09:11:12;;;;;;;2.65;2.45;;;9.80;99.90;;;;;;4958262;28;20047;-73
2024/03/08 09:13:38;;;;;;;1.63;1.52;;;9.40;99.90;;;;;;4963605;28;20111;-74
2024/03/08 09:16:06;;;;;;;2.45;1.80;;;9.70;99.90;;;;;;4961243;28;20042;-74
2024/03/08 09:18:33;;;;;;;1.33;1.20;;;10.10;99.90;;;;;;4963905;28;20034;-75
2024/03/08 09:20:59;;;;;;;1.23;1.10;;;10.50;99.90;;;;;;4961952;28;20045;-75
2024/03/08 09:23:30;;;;;;;4.95;2.20;;;10.60;99.90;;;;;;4965107;28;20372;-74
2024/03/08 09:25:59;;;;;;;2.63;1.52;;;10.80;99.90;;;;;;4960195;28;20046;-74
2024/03/08 09:28:27;;;;;;;3.78;1.88;;;11.30;99.90;;;;;;4961590;28;20107;-73
2024/03/08 09:30:54;;;;;;;2.63;2.35;;;11.10;99.90;;;;;;4945228;28;20543;-74
2024/03/08 09:33:21;;;;;;;2.60;1.63;;;11.10;99.90;;;;;;4965772;28;20042;-74
2024/03/08 09:35:48;;;;;;;1.98;1.20;;;11.20;99.90;;;;;;4960885;28;20024;-75
2024/03/08 09:38:14;;;;;;;7.50;2.60;;;11.60;99.90;;;;;;4964712;28;20038;-75
2024/03/08 09:40:44;;;;;;;2.75;2.10;;;11.40;99.90;;;;;;4949070;28;20043;-75
2024/03/08 09:43:11;;;;;;;1.55;1.45;;;11.20;99.90;;;;;;4947521;28;20058;-74
2024/03/08 09:45:41;;;;;;;2.22;1.08;;;11.30;99.90;;;;;;4959833;28;20504;-75
2024/03/08 09:48:14;;;;;;;1.93;1.77;;;11.30;99.90;;;;;;4959292;28;20046;-74
2024/03/08 09:50:43;;;;;;;3.03;1.63;;;10.90;99.90;;;;;;4948094;28;20046;-74
2024/03/08 09:53:11;;;;;;;2.30;1.55;;;11.60;99.90;;;;;;4963959;28;20043;-74
2024/03/08 09:55:42;;;;;;;1.38;1.30;;;12.00;99.90;;;;;;4963865;28;20038;-75
2024/03/08 10:00:46;;;;;;;2.83;2.15;;;11.50;99.90;;;;;;4963472;28;20046;-74
2024/03/08 10:03:14;;;;;;;1.48;1.38;;;10.70;99.90;;;;;;4958692;28;20031;-74
2024/03/08 10:05:41;;;;;;;3.38;1.88;;;9.90;99.90;;;;;;4964872;28;20034;-74
2024/03/08 10:08:08;;;;;;;6.53;2.72;;;9.30;99.90;;;;;;4969039;28;20039;-74
2024/03/08 10:10:35;;;;;;;3.80;2.95;;;9.10;99.90;;;;;;4963127;28;20035;-74
2024/03/08 10:13:01;;;;;;;6.75;2.33;;;9.00;99.90;;;;;;4963681;28;20043;-75
2024/03/08 10:15:29;;;;;;;1.30;1.08;;;9.30;99.90;;;;;;4960726;28;20484;-75
2024/03/08 10:17:58;;;;;;;4.00;1.60;;;9.50;99.90;;;;;;4965024;28;20033;-76
2024/03/08 10:20:26;;;;;;;2.42;1.35;;;9.60;99.90;;;;;;4964264;28;20053;-75
2024/03/08 10:22:53;;;;;;;2.10;2.00;;;9.80;99.90;;;;;;4966301;28;20034;-76
2024/03/08 10:25:20;;;;;;;4.97;1.40;;;9.90;99.90;;;;;;4966801;28;20022;-77
2024/03/08 10:27:46;;;;;;;1.50;1.20;;;9.80;99.90;;;;;;4973672;28;20038;-75
2024/03/08 10:30:19;;;;;;;1.85;1.30;;;9.50;99.90;;;;;;4960482;28;20042;-76
2024/03/08 10:32:46;;;;;;;4.05;2.35;;;9.40;99.90;;;;;;4970819;28;20035;-76
2024/03/08 10:35:12;;;;;;;2.33;2.17;;;9.30;99.90;;;;;;4969219;28;20031;-77
2024/03/08 10:37:47;;;;;;;1.45;1.35;;;8.60;99.90;;;;;;4969998;28;20034;-75
2024/03/08 10:40:19;;;;;;;1.95;1.75;;;8.30;99.90;;;;;;4948044;28;20039;-76
2024/03/08 10:42:56;;;;;;;5.38;1.65;;;8.20;99.90;;;;;;4971287;28;20038;-76
2024/03/08 10:45:42;;;;;;;8.32;2.28;;;8.30;99.90;;;;;;4972574;28;20030;-77
2024/03/08 10:48:42;;;;;;;1.13;1.08;;;8.30;99.90;;;;;;4968722;28;20036;-75
2024/03/08 10:51:12;;;;;;;13.00;2.78;;;8.40;99.90;;;;;;4962278;28;20396;-76
2024/03/08 10:53:42;;;;;;;1.52;1.42;;;8.50;99.90;;;;;;4972211;28;20157;-76
2024/03/08 10:56:09;;;;;;;1.70;1.60;;;8.70;99.90;;;;;;4969058;28;20037;-76
2024/03/08 10:58:37;;;;;;;5.70;2.13;;;8.90;99.90;;;;;;4947942;28;20038;-77
2024/03/08 11:01:03;;;;;;;2.83;2.50;;;8.70;99.90;;;;;;4970783;28;20030;-76
2024/03/08 11:03:52;;;;;;;1.48;1.38;;;8.60;99.90;;;;;;4969986;28;20030;-76
2024/03/08 11:06:39;;;;;;;1.58;1.08;;;8.70;99.90;;;;;;4950659;28;20061;-75
2024/03/08 11:09:27;;;;;;;4.00;1.85;;;8.90;99.90;;;;;;4958037;28;20046;-76
2024/03/08 11:12:29;;;;;;;2.53;1.70;;;8.80;99.90;;;;;;4972187;28;20065;-75
2024/03/08 11:15:00;;;;;;;1.75;1.65;;;9.00;99.90;;;;;;4960731;28;20035;-76
2024/03/08 11:17:33;;;;;;;7.13;2.05;;;9.20;99.90;;;;;;4964955;28;20027;-76
2024/03/08 11:20:05;;;;;;;8.00;2.63;;;9.40;99.90;;;;;;4965540;28;20035;-75
2024/03/08 11:22:34;;;;;;;1.38;1.30;;;9.50;99.90;;;;;;4936872;28;20361;-75
2024/03/08 11:25:09;;;;;;;2.40;1.75;;;9.60;99.90;;;;;;4972138;28;20042;-77
2024/03/08 11:27:36;;;;;;;3.25;2.60;;;9.50;99.90;;;;;;4972430;28;20031;-76
2024/03/08 11:30:11;;;;;;;1.88;1.70;;;9.50;99.90;;;;;;4968669;28;20041;-75
2024/03/08 11:32:38;;;;;;;2.58;2.38;;;9.60;99.90;;;;;;4963553;28;20035;-77
2024/03/08 11:35:18;;;;;;;1.60;1.50;;;9.60;99.90;;;;;;4968935;28;20038;-76
2024/03/08 11:37:44;;;;;;;1.25;1.15;;;9.70;99.90;;;;;;4968879;28;20495;-75
2024/03/08 11:40:15;;;;;;;2.47;2.28;;;9.70;99.90;;;;;;4969134;28;20042;-75
2024/03/08 11:42:49;;;;;;;7.55;2.92;;;9.30;99.90;;;;;;4970056;28;20058;-76
2024/03/08 11:45:21;;;;;;;6.93;3.15;;;9.10;99.90;;;;;;4966519;28;20420;-76
2024/03/08 11:47:47;;;;;;;1.75;1.38;;;9.20;99.90;;;;;;4955238;28;20051;-75
2024/03/08 11:50:14;;;;;;;1.10;1.00;;;9.30;99.90;;;;;;4958142;28;20030;-77
2024/03/08 11:52:40;;;;;;;3.72;2.22;;;9.30;99.90;;;;;;4965556;28;20057;-79
2024/03/08 11:55:07;;;;;;;1.90;1.80;;;9.10;99.90;;;;;;4939589;28;20047;-80
2024/03/08 11:57:33;;;;;;;2.88;2.45;;;8.90;99.90;;;;;;4967333;28;20038;-80
2024/03/08 12:00:06;;;;;;;3.15;2.03;;;9.00;99.90;;;;;;4962441;28;20086;-76
2024/03/08 12:02:37;;;;;;;5.65;1.67;;;9.10;99.90;;;;;;4967992;28;20050;-75
2024/03/08 12:05:06;;;;;;;1.42;1.33;;;9.30;99.90;;;;;;4966926;28;20031;-76
2024/03/08 12:07:32;;;;;;;3.78;2.65;;;9.10;99.90;;;;;;4963125;28;20380;-76
2024/03/08 12:10:18;;;;;;;24.15;3.15;;;9.30;99.90;;;;;;4967290;28;20031;-76
2024/03/08 12:12:51;;;;;;;1.88;1.65;;;9.60;99.90;;;;;;4966634;28;20039;-75
2024/03/08 12:15:19;;;;;;;6.68;2.50;;;9.60;99.90;;;;;;4966800;28;20043;-76
2024/03/08 12:17:50;;;;;;;4.95;3.03;;;9.60;99.90;;;;;;4962773;28;20039;-76
2024/03/08 12:20:30;;;;;;;4.22;2.42;;;9.40;99.90;;;;;;4959037;28;20476;-75
2024/03/08 12:22:58;;;;;;;1.00;0.97;;;9.40;99.90;;;;;;4964068;28;20096;-76
2024/03/08 12:25:32;;;;;;;8.40;3.30;;;9.80;99.90;;;;;;4966354;28;20035;-75
2024/03/08 12:28:11;;;;;;;4.47;1.30;;;9.70;99.90;;;;;;4965361;28;20038;-75
2024/03/08 12:30:47;;;;;;;4.40;1.10;;;9.40;99.90;;;;;;4944950;28;20389;-76
2024/03/08 12:33:13;;;;;;;2.05;1.90;;;9.50;99.90;;;;;;4955155;28;20466;-77
2024/03/08 12:35:39;;;;;;;2.00;1.35;;;9.60;99.90;;;;;;4953667;28;20054;-76
2024/03/08 12:38:08;;;;;;;2.75;2.42;;;9.80;99.90;;;;;;4962246;28;20035;-76
2024/03/08 12:40:34;;;;;;;2.47;2.28;;;9.80;99.90;;;;;;4958181;28;20053;-76
2024/03/08 12:43:02;;;;;;;3.45;3.15;;;9.80;99.90;;;;;;4961314;28;20039;-74
2024/03/08 12:45:28;;;;;;;4.00;2.38;;;9.70;99.90;;;;;;4945099;28;20043;-76
2024/03/08 12:47:55;;;;;;;3.95;3.13;;;9.80;99.90;;;;;;4965259;28;20042;-75
2024/03/08 12:50:23;;;;;;;1.98;1.45;;;9.80;99.90;;;;;;4962388;28;20034;-77
2024/03/08 12:52:49;;;;;;;5.70;2.30;;;9.60;99.90;;;;;;4943277;28;20041;-76
2024/03/08 12:55:16;;;;;;;1.73;1.63;;;9.70;99.90;;;;;;4959656;28;20037;-76
2024/03/08 12:57:44;;;;;;;2.30;2.10;;;10.00;99.90;;;;;;4964342;28;20027;-76
2024/03/08 13:00:18;;;;;;;1.70;1.60;;;10.10;99.90;;;;;;4961935;28;20038;-76
2024/03/08 13:02:49;;;;;;;9.43;8.63;;;10.00;99.90;;;;;;4946203;28;20127;-76
2024/03/08 13:05:15;;;;;;;5.20;3.20;;;10.10;99.90;;;;;;4961440;28;20033;-75